Time;durP1;ratioP1;P1;durP2;ratioP2;P2;SDS_P1;SDS_P2;PMS_P1;PMS_P2;Temp;Humidity;BMP_temperature;BMP_pressure;BME280_temperature;BME280_humidity;BME280_pressure;Samples;Min_cycle;Max_cycle;Signal;HPM_P1;HPM_P2
2023/04/11 00:02:03;;;;;;;4.60;1.10;;;10.00;84.10;;;;;;5153765;27;20074;-69
2023/04/11 00:04:29;;;;;;;2.60;1.20;;;10.00;84.00;;;;;;5134899;27;20075;-69
2023/04/11 00:06:55;;;;;;;5.40;1.48;;;10.00;83.80;;;;;;5153990;27;20038;-69
2023/04/11 00:09:21;;;;;;;2.88;1.15;;;10.10;83.80;;;;;;5154364;27;20053;-69
2023/04/11 00:11:47;;;;;;;4.13;1.33;;;10.10;83.70;;;;;;5151613;27;20043;-68
2023/04/11 00:14:14;;;;;;;4.30;1.20;;;10.10;83.70;;;;;;5135168;27;20042;-69
2023/04/11 00:16:41;;;;;;;2.53;0.98;;;10.10;83.70;;;;;;5153625;27;20512;-69
2023/04/11 00:19:08;;;;;;;3.53;1.23;;;10.00;83.70;;;;;;5135512;27;20497;-68
2023/04/11 00:21:34;;;;;;;2.80;1.10;;;10.00;83.70;;;;;;5153945;27;20051;-68
2023/04/11 00:24:00;;;;;;;5.53;1.17;;;10.00;83.70;;;;;;5153540;27;20497;-68
2023/04/11 00:26:26;;;;;;;2.47;1.17;;;10.10;83.80;;;;;;5153460;27;20046;-69
2023/04/11 00:28:52;;;;;;;3.13;1.10;;;10.00;83.70;;;;;;5153464;27;20170;-68
2023/04/11 00:31:17;;;;;;;2.78;1.08;;;10.00;83.70;;;;;;5153842;27;20126;-68
2023/04/11 00:33:43;;;;;;;3.22;1.02;;;9.90;83.80;;;;;;5153828;27;20039;-70
2023/04/11 00:36:09;;;;;;;3.92;1.20;;;10.00;83.90;;;;;;5153406;27;20516;-69
2023/04/11 00:38:35;;;;;;;2.75;1.10;;;9.90;83.90;;;;;;5153242;27;20031;-69
2023/04/11 00:41:01;;;;;;;3.95;1.10;;;9.80;83.90;;;;;;5153222;27;20073;-69
2023/04/11 00:43:26;;;;;;;3.45;1.20;;;9.80;83.90;;;;;;5153301;27;20035;-69
2023/04/11 00:45:52;;;;;;;3.90;1.20;;;9.80;84.00;;;;;;5153486;27;20042;-69
2023/04/11 00:48:18;;;;;;;4.55;1.30;;;9.80;84.10;;;;;;5153418;27;20042;-69
2023/04/11 00:50:44;;;;;;;3.28;1.05;;;9.60;84.10;;;;;;5153101;27;20046;-68
2023/04/11 00:53:11;;;;;;;2.80;1.10;;;9.70;84.20;;;;;;5151781;27;20395;-68
2023/04/11 00:55:37;;;;;;;4.95;1.58;;;9.70;84.30;;;;;;5153123;27;20035;-69
2023/04/11 00:58:03;;;;;;;3.17;1.10;;;9.60;84.30;;;;;;5153049;27;20095;-68
2023/04/11 01:00:34;;;;;;;3.90;1.50;;;9.50;84.30;;;;;;5153229;27;20372;-69
2023/04/11 01:02:59;;;;;;;3.58;1.40;;;9.50;84.40;;;;;;5153437;27;20401;-68
2023/04/11 01:05:26;;;;;;;4.97;1.40;;;9.50;84.40;;;;;;5153055;27;20038;-68
2023/04/11 01:07:54;;;;;;;3.47;1.08;;;9.40;84.40;;;;;;5153047;27;20038;-69
2023/04/11 01:10:21;;;;;;;4.85;1.30;;;9.40;84.50;;;;;;5153277;27;20046;-68
2023/04/11 01:12:47;;;;;;;3.05;1.10;;;9.30;84.50;;;;;;5153375;27;20035;-68
2023/04/11 01:15:13;;;;;;;3.80;1.05;;;9.40;84.60;;;;;;5155592;27;20038;-69
2023/04/11 01:17:40;;;;;;;5.53;1.35;;;9.40;84.60;;;;;;5156804;27;20489;-68
2023/04/11 01:20:08;;;;;;;4.78;1.50;;;9.40;84.70;;;;;;5156353;27;20042;-68
2023/04/11 01:22:36;;;;;;;3.25;1.00;;;9.30;84.70;;;;;;5156257;27;20099;-69
2023/04/11 01:25:02;;;;;;;3.30;1.00;;;9.30;84.70;;;;;;5138167;27;20413;-68
2023/04/11 01:27:28;;;;;;;4.68;1.20;;;9.30;84.70;;;;;;5156791;27;20042;-69
2023/04/11 01:29:54;;;;;;;5.57;1.20;;;9.20;84.70;;;;;;5156145;27;20066;-69
2023/04/11 01:32:19;;;;;;;4.13;1.10;;;9.20;84.70;;;;;;5156727;27;20045;-69
2023/04/11 01:34:47;;;;;;;4.05;1.27;;;9.20;84.80;;;;;;5156217;27;20069;-69
2023/04/11 01:37:12;;;;;;;3.75;1.20;;;9.10;84.80;;;;;;5138370;27;20137;-69
2023/04/11 01:39:38;;;;;;;4.78;1.17;;;9.10;84.80;;;;;;5138311;27;20117;-68
2023/04/11 01:42:05;;;;;;;4.53;1.42;;;9.10;84.80;;;;;;5156339;27;20039;-68
2023/04/11 01:44:32;;;;;;;3.30;1.05;;;9.00;84.80;;;;;;5156055;27;20107;-69
2023/04/11 01:46:58;;;;;;;6.55;1.20;;;9.10;84.90;;;;;;5137725;27;20077;-68
2023/04/11 01:49:25;;;;;;;4.72;1.23;;;9.10;85.00;;;;;;5156089;27;20047;-69
2023/04/11 01:51:50;;;;;;;1.95;0.90;;;9.00;85.00;;;;;;5155872;27;20057;-68
2023/04/11 01:54:16;;;;;;;5.47;1.00;;;9.00;85.00;;;;;;5156246;27;20121;-68
2023/04/11 01:56:42;;;;;;;4.72;1.20;;;9.00;85.10;;;;;;5155866;27;20043;-68
2023/04/11 01:59:07;;;;;;;5.18;0.90;;;9.00;85.10;;;;;;5137442;27;20035;-68
2023/04/11 02:01:34;;;;;;;4.15;1.08;;;8.90;85.10;;;;;;5155842;27;20039;-68
2023/04/11 02:04:00;;;;;;;4.05;1.20;;;8.90;85.10;;;;;;5155799;27;20047;-69
2023/04/11 02:06:27;;;;;;;2.95;1.00;;;8.90;85.10;;;;;;5137448;27;20053;-69
2023/04/11 02:08:53;;;;;;;3.38;1.05;;;8.90;85.20;;;;;;5156172;27;20057;-69
2023/04/11 02:11:19;;;;;;;2.33;0.80;;;8.90;85.20;;;;;;5155622;27;20039;-69
2023/04/11 02:13:45;;;;;;;5.03;1.27;;;8.80;85.10;;;;;;5137637;27;20075;-69
2023/04/11 02:16:16;;;;;;;4.88;1.20;;;8.90;85.20;;;;;;5137370;27;20123;-69
2023/04/11 02:18:43;;;;;;;4.47;1.20;;;8.90;85.30;;;;;;5156000;27;20069;-69
2023/04/11 02:21:09;;;;;;;4.00;1.10;;;8.80;85.30;;;;;;5155623;27;20055;-69
2023/04/11 02:23:35;;;;;;;4.10;1.08;;;8.80;85.30;;;;;;5155897;27;20038;-69
2023/04/11 02:26:02;;;;;;;4.88;1.10;;;8.80;85.30;;;;;;5136335;27;20051;-69
2023/04/11 02:28:28;;;;;;;2.80;0.77;;;8.80;85.30;;;;;;5155412;27;20093;-69
2023/04/11 02:30:54;;;;;;;4.10;0.98;;;8.80;85.30;;;;;;5155588;27;20433;-68
2023/04/11 02:33:20;;;;;;;5.25;1.60;;;8.80;85.30;;;;;;5136954;27;20034;-69
2023/04/11 02:35:46;;;;;;;6.07;1.08;;;8.80;85.20;;;;;;5136739;27;20091;-69
2023/04/11 02:38:12;;;;;;;4.80;1.27;;;8.80;85.30;;;;;;5155217;27;20091;-69
2023/04/11 02:40:37;;;;;;;6.38;1.35;;;8.80;85.30;;;;;;5155325;27;20470;-69
2023/04/11 02:43:03;;;;;;;3.75;1.00;;;8.80;85.20;;;;;;5155197;27;20034;-69
2023/04/11 02:45:29;;;;;;;2.90;0.98;;;8.80;85.30;;;;;;5155130;27;20050;-69
2023/04/11 02:47:55;;;;;;;2.72;0.90;;;8.90;85.30;;;;;;5154990;27;20042;-69
2023/04/11 02:50:20;;;;;;;2.13;1.05;;;8.80;85.30;;;;;;5154854;27;20121;-69
2023/04/11 02:52:48;;;;;;;0.80;0.50;;;8.80;85.30;;;;;;5154914;27;20039;-69
2023/04/11 02:55:13;;;;;;;2.88;0.75;;;8.80;85.40;;;;;;5154906;27;20163;-69
2023/04/11 02:57:39;;;;;;;3.78;0.90;;;8.80;85.50;;;;;;5155368;27;20113;-70
2023/04/11 03:00:06;;;;;;;2.45;0.88;;;8.80;85.50;;;;;;5154953;27;20139;-70
2023/04/11 03:02:32;;;;;;;2.50;0.70;;;8.80;85.50;;;;;;5154936;27;20066;-69
2023/04/11 03:05:02;;;;;;;3.08;0.80;;;8.80;85.60;;;;;;5136369;27;20393;-69
2023/04/11 03:07:30;;;;;;;2.88;0.73;;;8.70;85.60;;;;;;5137105;27;20099;-69
2023/04/11 03:09:56;;;;;;;1.80;0.70;;;8.70;85.60;;;;;;5155059;27;20125;-70
2023/04/11 03:12:21;;;;;;;2.40;0.80;;;8.80;85.70;;;;;;5136218;27;20562;-69
2023/04/11 03:14:47;;;;;;;2.30;0.75;;;8.60;85.60;;;;;;5155018;27;20084;-69
2023/04/11 03:17:12;;;;;;;2.00;0.57;;;8.70;85.70;;;;;;5154886;27;20428;-70
2023/04/11 03:19:38;;;;;;;3.47;0.77;;;8.70;85.70;;;;;;5154898;27;20045;-69
2023/04/11 03:22:04;;;;;;;2.20;0.70;;;8.70;85.80;;;;;;5136099;27;20087;-69
2023/04/11 03:24:31;;;;;;;3.17;0.70;;;8.70;85.90;;;;;;5136008;27;20042;-69
2023/04/11 03:26:57;;;;;;;4.25;0.70;;;8.70;85.90;;;;;;5154439;27;20043;-69
2023/04/11 03:29:23;;;;;;;1.65;0.63;;;8.70;85.90;;;;;;5154208;27;20057;-69
2023/04/11 03:31:49;;;;;;;3.17;0.75;;;8.60;85.90;;;;;;5154213;27;20061;-69
2023/04/11 03:34:16;;;;;;;1.35;0.57;;;8.70;85.90;;;;;;5154763;27;20043;-69
2023/04/11 03:36:42;;;;;;;3.70;0.70;;;8.60;85.90;;;;;;5135321;27;20083;-69
2023/04/11 03:39:08;;;;;;;1.52;0.77;;;8.60;86.60;;;;;;5153764;27;20106;-69
2023/04/11 03:41:34;;;;;;;1.65;0.75;;;8.60;86.10;;;;;;5154025;27;20561;-69
2023/04/11 03:44:00;;;;;;;2.10;0.80;;;8.50;86.10;;;;;;5154117;27;20042;-70
2023/04/11 03:46:26;;;;;;;1.85;0.50;;;8.60;86.20;;;;;;5118373;27;20547;-69
2023/04/11 03:48:51;;;;;;;1.20;0.60;;;8.50;86.20;;;;;;5154414;27;20034;-69
2023/04/11 03:51:17;;;;;;;3.60;0.80;;;8.50;86.30;;;;;;5152519;27;20046;-69
2023/04/11 03:53:43;;;;;;;2.60;0.85;;;8.50;86.40;;;;;;5154115;27;20083;-69
2023/04/11 03:56:09;;;;;;;2.47;0.57;;;8.50;86.40;;;;;;5153968;27;20066;-69
2023/04/11 03:58:35;;;;;;;2.58;0.63;;;8.50;86.30;;;;;;5153872;27;20087;-69
2023/04/11 04:01:01;;;;;;;2.25;0.70;;;8.50;86.30;;;;;;5154289;27;20406;-69
2023/04/11 04:03:27;;;;;;;2.85;0.88;;;8.50;86.20;;;;;;5154022;27;20436;-69
2023/04/11 04:05:53;;;;;;;3.75;0.65;;;8.60;86.20;;;;;;5154724;27;20047;-69
2023/04/11 04:08:18;;;;;;;4.57;1.02;;;8.60;86.10;;;;;;5154080;27;20508;-69
2023/04/11 04:10:45;;;;;;;2.75;0.90;;;8.60;86.00;;;;;;5154323;27;20501;-69
2023/04/11 04:13:11;;;;;;;1.92;0.75;;;8.60;85.80;;;;;;5154072;27;20046;-69
2023/04/11 04:15:37;;;;;;;5.07;0.63;;;8.60;85.80;;;;;;5154060;27;20031;-69
2023/04/11 04:18:03;;;;;;;1.38;0.60;;;8.60;85.70;;;;;;5153970;27;20485;-69
2023/04/11 04:20:29;;;;;;;1.67;0.80;;;8.60;85.60;;;;;;5153792;27;20042;-69
2023/04/11 04:22:54;;;;;;;1.90;0.70;;;8.60;85.50;;;;;;5135160;27;20049;-69
2023/04/11 04:25:20;;;;;;;5.60;1.05;;;8.60;85.40;;;;;;5154010;27;20046;-70
2023/04/11 04:27:46;;;;;;;3.65;0.68;;;8.70;85.50;;;;;;5153926;27;20053;-69
2023/04/11 04:30:14;;;;;;;1.85;0.60;;;8.70;85.40;;;;;;5154105;27;20035;-69
2023/04/11 04:32:42;;;;;;;1.08;0.50;;;8.60;85.30;;;;;;5153789;27;20067;-69
2023/04/11 04:35:08;;;;;;;1.83;0.70;;;8.60;85.30;;;;;;5135346;27;20034;-69
2023/04/11 04:37:38;;;;;;;1.95;0.75;;;8.60;85.30;;;;;;5135037;27;20058;-69
2023/04/11 04:40:06;;;;;;;1.98;0.80;;;8.70;85.30;;;;;;5153705;27;20038;-69
2023/04/11 04:42:33;;;;;;;3.80;1.00;;;8.70;85.20;;;;;;5153632;27;20049;-69
2023/04/11 04:44:59;;;;;;;3.45;0.80;;;8.60;85.10;;;;;;5135677;27;20035;-69
2023/04/11 04:47:30;;;;;;;0.80;0.45;;;8.70;85.10;;;;;;5153702;27;20035;-68
2023/04/11 04:49:56;;;;;;;1.83;0.70;;;8.80;85.20;;;;;;5155761;27;20058;-69
2023/04/11 04:52:24;;;;;;;2.22;0.60;;;8.60;85.10;;;;;;5157112;27;20086;-69
2023/04/11 04:54:50;;;;;;;1.83;0.60;;;8.60;85.10;;;;;;5138498;27;20493;-69
2023/04/11 04:57:16;;;;;;;1.02;0.75;;;8.60;85.10;;;;;;5138631;27;20087;-69
2023/04/11 04:59:43;;;;;;;0.77;0.40;;;8.60;85.10;;;;;;5156923;27;20092;-69
2023/04/11 05:02:09;;;;;;;2.40;0.73;;;8.60;85.10;;;;;;5138349;27;20454;-68
2023/04/11 05:04:35;;;;;;;1.33;0.60;;;8.70;85.20;;;;;;5121432;27;20034;-68
2023/04/11 05:07:01;;;;;;;0.52;0.50;;;8.60;85.10;;;;;;5156983;27;20400;-69
2023/04/11 05:09:27;;;;;;;1.45;0.60;;;8.60;85.10;;;;;;5157242;27;20043;-69
2023/04/11 05:11:52;;;;;;;1.65;0.77;;;8.50;85.10;;;;;;5156820;27;20037;-69
2023/04/11 05:14:18;;;;;;;1.85;0.60;;;8.60;85.10;;;;;;5157248;27;20050;-68
2023/04/11 05:16:44;;;;;;;1.70;0.60;;;8.60;85.10;;;;;;5156972;27;20095;-69
2023/04/11 05:19:09;;;;;;;2.25;0.80;;;8.60;85.00;;;;;;5157320;27;20031;-70
2023/04/11 05:21:36;;;;;;;1.30;0.55;;;8.50;85.00;;;;;;5138225;27;20046;-70
2023/04/11 05:24:02;;;;;;;2.17;0.75;;;8.60;85.00;;;;;;5156977;27;20047;-69
2023/04/11 05:26:28;;;;;;;0.93;0.60;;;8.50;84.90;;;;;;5157204;27;20042;-69
2023/04/11 05:28:54;;;;;;;1.08;0.60;;;8.50;84.90;;;;;;5156605;27;20049;-69
2023/04/11 05:31:20;;;;;;;0.93;0.43;;;8.50;84.90;;;;;;5157029;27;20046;-70
2023/04/11 05:33:46;;;;;;;2.33;0.63;;;8.40;84.90;;;;;;5138147;27;20077;-69
2023/04/11 05:36:13;;;;;;;1.77;0.52;;;8.40;84.90;;;;;;5157030;27;20034;-70
2023/04/11 05:38:40;;;;;;;1.23;0.40;;;8.30;85.00;;;;;;5156903;27;20096;-69
2023/04/11 05:41:07;;;;;;;2.33;0.68;;;8.30;85.00;;;;;;5156516;27;20405;-70
2023/04/11 05:43:33;;;;;;;1.60;0.50;;;8.30;85.00;;;;;;5156337;27;20524;-69
2023/04/11 05:45:59;;;;;;;2.95;0.80;;;8.20;84.90;;;;;;5156830;27;20050;-69
2023/04/11 05:48:24;;;;;;;1.60;0.80;;;8.20;84.80;;;;;;5156263;27;20038;-70
2023/04/11 05:50:50;;;;;;;1.25;0.63;;;8.20;84.80;;;;;;5137499;27;20402;-69
2023/04/11 05:53:16;;;;;;;2.67;0.70;;;8.20;84.80;;;;;;5156335;27;20043;-69
2023/04/11 05:55:41;;;;;;;1.63;0.45;;;8.20;84.70;;;;;;5121022;27;20035;-69
2023/04/11 05:58:08;;;;;;;1.15;0.50;;;8.20;84.70;;;;;;5156309;27;20041;-69
2023/04/11 06:00:34;;;;;;;3.42;0.60;;;8.20;85.20;;;;;;5154946;27;20039;-69
2023/04/11 06:03:00;;;;;;;1.52;0.40;;;8.20;84.50;;;;;;5156690;27;20394;-69
2023/04/11 06:05:30;;;;;;;0.68;0.40;;;8.20;84.40;;;;;;5156092;27;20039;-69
2023/04/11 06:07:57;;;;;;;2.08;0.70;;;8.20;84.30;;;;;;5155946;27;20053;-69
2023/04/11 06:10:23;;;;;;;1.67;0.70;;;8.20;84.10;;;;;;5155796;27;20115;-70
2023/04/11 06:12:48;;;;;;;0.95;0.65;;;8.20;84.00;;;;;;5156265;27;20070;-69
2023/04/11 06:15:14;;;;;;;1.50;0.55;;;8.20;84.00;;;;;;5155847;27;20569;-69
2023/04/11 06:17:40;;;;;;;0.85;0.40;;;8.30;83.90;;;;;;5137456;27;20038;-70
2023/04/11 06:20:07;;;;;;;2.38;0.70;;;8.30;83.80;;;;;;5155904;27;20031;-69
2023/04/11 06:22:33;;;;;;;1.02;0.40;;;8.40;83.70;;;;;;5156201;27;20153;-70
2023/04/11 06:24:58;;;;;;;0.88;0.43;;;8.40;83.50;;;;;;5155629;27;20502;-70
2023/04/11 06:27:25;;;;;;;1.83;0.60;;;8.50;83.50;;;;;;5155714;27;20035;-70
2023/04/11 06:29:50;;;;;;;1.80;0.57;;;8.50;83.30;;;;;;5155740;27;20589;-69
2023/04/11 06:32:16;;;;;;;0.90;0.45;;;8.60;83.20;;;;;;5156024;27;20129;-69
2023/04/11 06:34:42;;;;;;;2.70;0.63;;;8.60;83.10;;;;;;5156029;27;20049;-69
2023/04/11 06:37:07;;;;;;;1.50;0.47;;;8.70;83.00;;;;;;5155599;27;20038;-70
2023/04/11 06:39:34;;;;;;;1.95;0.68;;;8.70;82.80;;;;;;5155445;27;20034;-70
2023/04/11 06:42:00;;;;;;;1.85;0.60;;;8.80;82.70;;;;;;5155538;27;20038;-70
2023/04/11 06:44:27;;;;;;;2.28;0.75;;;8.80;82.50;;;;;;5155420;27;20038;-70
2023/04/11 06:46:53;;;;;;;2.30;0.60;;;8.90;82.50;;;;;;5153540;27;20031;-69
2023/04/11 06:49:19;;;;;;;2.20;0.70;;;8.90;82.40;;;;;;5155318;27;20033;-69
2023/04/11 06:51:48;;;;;;;1.58;0.70;;;9.00;82.30;;;;;;5155119;27;20066;-69
2023/04/11 06:54:15;;;;;;;1.52;0.77;;;9.00;82.20;;;;;;5155161;27;20031;-70
2023/04/11 06:56:41;;;;;;;0.55;0.38;;;9.10;82.70;;;;;;5155246;27;20035;-70
2023/04/11 06:59:06;;;;;;;1.58;0.60;;;9.10;82.10;;;;;;5155485;27;20401;-70
2023/04/11 07:01:36;;;;;;;1.15;0.50;;;9.20;82.00;;;;;;5136709;27;20402;-70
2023/04/11 07:04:03;;;;;;;1.00;0.45;;;9.20;82.00;;;;;;5155202;27;20049;-70
2023/04/11 07:06:30;;;;;;;1.60;0.47;;;9.30;82.00;;;;;;5155197;27;20037;-70
2023/04/11 07:08:56;;;;;;;1.38;0.70;;;9.40;81.80;;;;;;5154989;27;20107;-70
2023/04/11 07:11:21;;;;;;;0.75;0.50;;;9.40;81.80;;;;;;5154739;27;20043;-70
2023/04/11 07:13:48;;;;;;;0.65;0.50;;;9.50;81.70;;;;;;5154858;27;20027;-69
2023/04/11 07:16:13;;;;;;;3.53;0.75;;;9.60;81.60;;;;;;5154902;27;20086;-70
2023/04/11 07:18:39;;;;;;;1.70;0.70;;;9.50;81.50;;;;;;5154693;27;20091;-70
2023/04/11 07:21:05;;;;;;;1.17;0.60;;;9.70;81.60;;;;;;5155261;27;20031;-70
2023/04/11 07:23:31;;;;;;;1.90;0.65;;;9.70;81.50;;;;;;5155166;27;20061;-70
2023/04/11 07:25:57;;;;;;;1.52;0.70;;;9.90;81.20;;;;;;5135996;27;20046;-70
2023/04/11 07:28:23;;;;;;;1.10;0.40;;;10.00;81.10;;;;;;5154799;27;20035;-70
2023/04/11 07:30:49;;;;;;;2.30;0.60;;;10.00;80.80;;;;;;5154589;27;20109;-70
2023/04/11 07:33:15;;;;;;;2.25;0.50;;;10.10;80.80;;;;;;5136153;27;20039;-69
2023/04/11 07:35:40;;;;;;;3.15;0.85;;;10.10;80.80;;;;;;5155147;27;20530;-70
2023/04/11 07:38:08;;;;;;;2.67;0.80;;;10.10;80.80;;;;;;5154401;27;20126;-70
2023/04/11 07:40:33;;;;;;;2.20;0.80;;;10.10;80.60;;;;;;5136456;27;20043;-69
2023/04/11 07:43:00;;;;;;;2.83;0.82;;;10.10;80.60;;;;;;5154727;27;20098;-69
2023/04/11 07:45:26;;;;;;;2.28;0.95;;;10.10;80.60;;;;;;5154389;27;20382;-69
2023/04/11 07:47:51;;;;;;;3.15;1.05;;;10.20;80.50;;;;;;5154934;27;20045;-70
2023/04/11 07:50:17;;;;;;;2.63;0.90;;;10.20;80.50;;;;;;5154276;27;20046;-69
2023/04/11 07:52:43;;;;;;;2.22;0.90;;;10.30;80.30;;;;;;5118552;27;20529;-69
2023/04/11 07:55:09;;;;;;;1.65;0.80;;;10.40;80.70;;;;;;5154640;27;20035;-69
2023/04/11 07:57:35;;;;;;;4.13;0.73;;;10.60;79.90;;;;;;5135689;27;20039;-69
2023/04/11 08:00:01;;;;;;;2.70;0.82;;;10.50;79.60;;;;;;5153973;27;20079;-69
2023/04/11 08:02:27;;;;;;;2.70;0.73;;;10.60;79.60;;;;;;5154130;27;20512;-69
2023/04/11 08:04:52;;;;;;;1.55;0.57;;;10.60;79.20;;;;;;5154583;27;20030;-69
2023/04/11 08:07:18;;;;;;;2.45;0.88;;;10.50;79.10;;;;;;5154275;27;20031;-70
2023/04/11 08:09:44;;;;;;;2.42;0.95;;;10.50;79.40;;;;;;5154035;27;20038;-70
2023/04/11 08:12:09;;;;;;;1.13;0.70;;;10.60;79.40;;;;;;5154179;27;20122;-69
2023/04/11 08:14:36;;;;;;;3.92;0.90;;;10.60;79.00;;;;;;5154025;27;20042;-69
2023/04/11 08:17:01;;;;;;;2.10;0.88;;;10.60;78.80;;;;;;5154440;27;20394;-69
2023/04/11 08:19:27;;;;;;;2.90;1.00;;;10.50;78.80;;;;;;5154237;27;20035;-70
2023/04/11 08:21:53;;;;;;;1.23;0.63;;;10.50;79.00;;;;;;5154181;27;20082;-70
2023/04/11 08:24:19;;;;;;;1.27;0.60;;;10.40;79.00;;;;;;5153128;27;20508;-70
2023/04/11 08:26:45;;;;;;;1.42;0.90;;;10.30;79.20;;;;;;5154344;27;20091;-69
2023/04/11 08:29:11;;;;;;;1.80;0.60;;;10.30;79.40;;;;;;5154362;27;20482;-70
2023/04/11 08:31:42;;;;;;;2.63;0.60;;;10.30;79.80;;;;;;5153957;27;20549;-70
2023/04/11 08:34:07;;;;;;;3.10;0.90;;;10.30;79.50;;;;;;5154280;27;20152;-69
2023/04/11 08:36:33;;;;;;;3.22;0.93;;;10.30;79.40;;;;;;5153537;27;20034;-70
2023/04/11 08:38:59;;;;;;;1.33;0.80;;;10.30;79.30;;;;;;5153768;27;20045;-69
2023/04/11 08:41:29;;;;;;;2.03;0.70;;;10.20;79.20;;;;;;5153618;27;20550;-70
2023/04/11 08:43:56;;;;;;;2.05;0.90;;;10.20;79.20;;;;;;5153856;27;20080;-70
2023/04/11 08:46:22;;;;;;;3.58;0.90;;;10.10;79.20;;;;;;5153448;27;20041;-70
2023/04/11 08:48:48;;;;;;;1.83;0.93;;;10.10;79.40;;;;;;5153581;27;20066;-69
2023/04/11 08:51:21;;;;;;;2.40;0.90;;;10.30;79.30;;;;;;5134820;27;20054;-69
2023/04/11 08:53:46;;;;;;;2.78;0.82;;;10.50;78.50;;;;;;5153521;27;20439;-69
2023/04/11 08:56:15;;;;;;;4.10;1.10;;;10.80;77.70;;;;;;5153299;27;20034;-69
2023/04/11 08:58:41;;;;;;;2.15;0.90;;;10.90;76.90;;;;;;5153946;27;20109;-69
2023/04/11 09:01:23;;;;;;;2.72;1.10;;;11.10;76.50;;;;;;5153351;27;20134;-70
2023/04/11 09:03:51;;;;;;;2.25;1.00;;;11.20;76.10;;;;;;5153377;27;20038;-69
2023/04/11 09:06:17;;;;;;;1.42;0.80;;;11.30;75.70;;;;;;5153270;27;20042;-70
2023/04/11 09:08:42;;;;;;;3.00;0.80;;;11.40;75.60;;;;;;5153134;27;20050;-70
2023/04/11 09:11:08;;;;;;;1.30;0.65;;;11.60;75.40;;;;;;5153331;27;20089;-70
2023/04/11 09:13:33;;;;;;;2.42;0.90;;;11.70;75.20;;;;;;5153281;27;20076;-70
2023/04/11 09:16:07;;;;;;;4.03;1.10;;;11.90;74.90;;;;;;5153552;27;20175;-69
2023/04/11 09:18:48;;;;;;;3.45;0.90;;;12.00;74.20;;;;;;5152975;27;20058;-70
2023/04/11 09:21:15;;;;;;;3.35;1.00;;;12.00;74.20;;;;;;5133701;27;20413;-70
2023/04/11 09:23:41;;;;;;;2.08;0.90;;;11.90;73.80;;;;;;5153330;27;20038;-70
2023/04/11 09:26:08;;;;;;;4.38;1.10;;;12.00;74.00;;;;;;5153127;27;20058;-70
2023/04/11 09:28:43;;;;;;;2.20;0.70;;;11.90;73.90;;;;;;5152899;27;20066;-69
2023/04/11 09:31:11;;;;;;;2.08;0.98;;;11.90;74.20;;;;;;5153264;27;20046;-69
2023/04/11 09:33:37;;;;;;;2.90;1.17;;;11.80;74.20;;;;;;5134949;27;20057;-69
2023/04/11 09:36:19;;;;;;;2.08;0.80;;;11.70;74.40;;;;;;5154297;27;20047;-70
2023/04/11 09:38:44;;;;;;;3.30;1.20;;;11.50;74.50;;;;;;5155613;27;20046;-70
2023/04/11 09:41:10;;;;;;;2.38;0.88;;;11.50;75.10;;;;;;5156783;27;20042;-69
2023/04/11 09:43:54;;;;;;;2.40;0.80;;;11.60;74.90;;;;;;5156343;27;20043;-69
2023/04/11 09:46:20;;;;;;;1.80;0.70;;;11.70;74.30;;;;;;5137982;27;20057;-70
2023/04/11 09:48:47;;;;;;;1.77;0.82;;;11.80;74.20;;;;;;5156255;27;20049;-70
2023/04/11 09:51:15;;;;;;;3.90;0.80;;;11.80;73.90;;;;;;5156498;27;20070;-69
2023/04/11 09:53:41;;;;;;;2.15;0.80;;;11.90;73.70;;;;;;5154554;27;20038;-69
2023/04/11 09:56:07;;;;;;;1.80;0.90;;;12.20;73.50;;;;;;5156525;27;20051;-70
2023/04/11 09:58:35;;;;;;;1.65;0.70;;;12.30;73.00;;;;;;5156705;27;20039;-70
2023/04/11 10:01:03;;;;;;;4.45;1.10;;;12.30;73.00;;;;;;5156502;27;20074;-70
2023/04/11 10:03:33;;;;;;;2.47;0.70;;;12.30;72.80;;;;;;5156580;27;20039;-70
2023/04/11 10:06:01;;;;;;;3.55;1.00;;;12.20;72.70;;;;;;5138248;27;20045;-70
2023/04/11 10:08:31;;;;;;;1.85;0.75;;;12.10;73.00;;;;;;5156309;27;20050;-70
2023/04/11 10:10:58;;;;;;;2.85;0.80;;;12.10;72.90;;;;;;5156302;27;20508;-70
2023/04/11 10:13:38;;;;;;;1.65;0.77;;;12.00;72.90;;;;;;5156063;27;20167;-70
2023/04/11 10:16:07;;;;;;;1.77;0.70;;;11.90;73.10;;;;;;5156268;27;20030;-69
2023/04/11 10:18:33;;;;;;;2.85;0.85;;;11.80;73.50;;;;;;5155861;27;20079;-70
2023/04/11 10:21:00;;;;;;;2.33;0.77;;;11.80;73.50;;;;;;5155849;27;20043;-70
2023/04/11 10:23:25;;;;;;;2.63;0.90;;;11.90;73.40;;;;;;5156107;27;20147;-69
2023/04/11 10:25:59;;;;;;;4.40;1.08;;;12.00;72.80;;;;;;5156361;27;20489;-70
2023/04/11 10:28:36;;;;;;;3.33;1.02;;;11.80;72.20;;;;;;5155704;27;20114;-70
2023/04/11 10:31:06;;;;;;;3.55;1.00;;;11.70;72.60;;;;;;5156011;27;20049;-70
2023/04/11 10:33:32;;;;;;;1.83;0.88;;;11.70;73.40;;;;;;5155736;27;20026;-69
2023/04/11 10:36:04;;;;;;;1.58;0.68;;;11.90;72.50;;;;;;5155543;27;20054;-69
2023/04/11 10:38:46;;;;;;;1.42;0.90;;;11.90;71.90;;;;;;5155488;27;20034;-70
2023/04/11 10:41:18;;;;;;;2.80;0.80;;;11.80;71.60;;;;;;5155837;27;20043;-70
2023/04/11 10:43:45;;;;;;;2.83;0.88;;;11.90;71.80;;;;;;5155410;27;20050;-70
2023/04/11 10:46:26;;;;;;;2.28;0.80;;;11.90;71.70;;;;;;5155644;27;20125;-70
2023/04/11 10:49:06;;;;;;;2.00;0.88;;;12.00;71.30;;;;;;5155491;27;20117;-70
2023/04/11 10:51:33;;;;;;;1.20;0.50;;;12.20;71.00;;;;;;5155346;27;20089;-70
2023/04/11 10:53:59;;;;;;;1.80;0.70;;;12.40;71.50;;;;;;5137141;27;20118;-69
2023/04/11 10:56:54;;;;;;;3.45;0.80;;;12.50;70.50;;;;;;5155122;27;20034;-69
2023/04/11 11:00:00;;;;;;;0.65;0.50;;;12.60;70.10;;;;;;5141264;27;20075;-70
2023/04/11 11:02:36;;;;;;;2.03;0.70;;;12.60;69.40;;;;;;5142822;27;20501;-70
2023/04/11 11:05:13;;;;;;;1.63;0.68;;;12.70;69.20;;;;;;5155072;27;20093;-70
2023/04/11 11:07:45;;;;;;;1.40;0.73;;;12.80;69.20;;;;;;5155051;27;20504;-70
2023/04/11 11:10:10;;;;;;;;;;;12.90;68.80;;;;;;5155706;27;20045;-70
2023/04/11 11:12:36;;;;;;;1.88;0.70;;;13.00;68.60;;;;;;5155006;27;20009;-70
2023/04/11 11:15:12;;;;;;;1.75;0.60;;;13.00;67.70;;;;;;5136572;27;20490;-69
2023/04/11 11:17:37;;;;;;;3.03;0.80;;;13.00;67.30;;;;;;5154842;27;20047;-70
2023/04/11 11:20:08;;;;;;;0.85;0.50;;;12.90;67.40;;;;;;5155434;27;20045;-70
2023/04/11 11:22:34;;;;;;;1.45;0.47;;;13.00;67.20;;;;;;5154787;27;20050;-69
2023/04/11 11:25:08;;;;;;;1.25;0.70;;;13.20;67.70;;;;;;5136297;27;20419;-70
2023/04/11 11:27:33;;;;;;;2.30;0.80;;;13.30;67.40;;;;;;5154732;27;20073;-70
2023/04/11 11:30:09;;;;;;;2.83;0.88;;;13.30;67.30;;;;;;5154750;27;20092;-70
2023/04/11 11:32:35;;;;;;;2.05;0.63;;;13.20;66.80;;;;;;5136739;27;20043;-70
2023/04/11 11:35:12;;;;;;;1.90;0.75;;;13.20;67.10;;;;;;5154732;27;20039;-70
2023/04/11 11:37:37;;;;;;;1.88;0.70;;;13.30;67.20;;;;;;5155139;27;20039;-70
2023/04/11 11:40:08;;;;;;;1.00;0.55;;;13.40;66.90;;;;;;5154992;27;20510;-70
2023/04/11 11:42:35;;;;;;;1.63;0.80;;;13.30;66.50;;;;;;5154883;27;20034;-70
2023/04/11 11:45:15;;;;;;;1.75;0.70;;;13.10;66.60;;;;;;5155055;27;20039;-70
2023/04/11 11:47:42;;;;;;;2.03;0.73;;;13.00;67.10;;;;;;5135980;27;20046;-70
2023/04/11 11:50:08;;;;;;;1.80;0.70;;;12.90;67.40;;;;;;5154338;27;20095;-70
2023/04/11 11:52:39;;;;;;;1.50;0.73;;;12.70;67.50;;;;;;5154434;27;20046;-70
2023/04/11 11:55:27;;;;;;;1.98;0.75;;;12.60;67.60;;;;;;5154715;27;20034;-70
2023/04/11 11:57:52;;;;;;;1.23;0.60;;;12.70;67.60;;;;;;5152156;27;20122;-70
2023/04/11 12:00:27;;;;;;;1.60;0.60;;;12.60;67.70;;;;;;5153571;27;20469;-70
2023/04/11 12:02:54;;;;;;;1.75;0.63;;;12.50;67.70;;;;;;5154711;27;20043;-70
2023/04/11 12:05:22;;;;;;;1.77;0.80;;;12.50;68.00;;;;;;5154530;27;20145;-70
2023/04/11 12:07:53;;;;;;;1.45;0.70;;;12.50;67.80;;;;;;5154515;27;20043;-69
2023/04/11 12:10:18;;;;;;;2.90;0.90;;;12.40;67.80;;;;;;5135681;27;20065;-70
2023/04/11 12:12:48;;;;;;;3.15;0.60;;;12.40;67.80;;;;;;5153998;27;20493;-70
2023/04/11 12:15:19;;;;;;;1.58;0.43;;;12.40;67.90;;;;;;5154364;27;20042;-70
2023/04/11 12:17:53;;;;;;;1.23;0.70;;;12.50;67.80;;;;;;5153987;27;20057;-71
2023/04/11 12:20:26;;;;;;;1.45;0.50;;;12.70;67.50;;;;;;5153814;27;20053;-70
2023/04/11 12:22:52;;;;;;;1.67;0.65;;;12.90;67.20;;;;;;5153902;27;20035;-69
2023/04/11 12:25:18;;;;;;;1.20;0.50;;;13.00;66.80;;;;;;5118352;27;20088;-70
2023/04/11 12:27:45;;;;;;;2.65;0.80;;;13.20;66.50;;;;;;5153757;27;20065;-69
2023/04/11 12:30:13;;;;;;;3.17;0.85;;;13.30;66.20;;;;;;5153860;27;20042;-70
2023/04/11 12:32:40;;;;;;;2.25;0.63;;;13.30;65.90;;;;;;5154076;27;20490;-69
2023/04/11 12:35:06;;;;;;;0.90;0.60;;;13.40;65.60;;;;;;5153775;27;20045;-71
2023/04/11 12:37:33;;;;;;;4.47;0.88;;;13.30;65.40;;;;;;5153590;27;20486;-71
2023/04/11 12:39:59;;;;;;;1.42;0.77;;;13.40;65.50;;;;;;5153480;27;20031;-70
2023/04/11 12:42:24;;;;;;;1.70;0.68;;;13.50;65.30;;;;;;5154090;27;20035;-70
2023/04/11 12:44:50;;;;;;;1.50;0.63;;;13.60;65.20;;;;;;5153785;27;20145;-69
2023/04/11 12:47:16;;;;;;;1.35;0.60;;;13.70;64.90;;;;;;5154148;27;20554;-69
2023/04/11 12:49:42;;;;;;;1.98;0.52;;;13.80;64.80;;;;;;5154080;27;20053;-70
2023/04/11 12:52:08;;;;;;;1.52;0.55;;;14.00;64.80;;;;;;5153514;27;20526;-70
2023/04/11 12:54:34;;;;;;;1.13;0.40;;;14.10;64.40;;;;;;5153583;27;20487;-70